Night Hawk — WDB7827 — position and weather

sailwx.info

Track history (hours):
 
Tides and Currents Weather Stations Pressure Air Temp Water Temp Dewpoint Dewpoint Depression Visibility Wind Speed Wind Dir Waves Ship Positions

Night Hawk

Owner: Salisbury Towing Corporation, Havre de Grace, MD. More information available from US FCC via Universal Licensing System and Coast Guard Vessel Documentation Center.

Last reported at 2017-Sep-19 20:00 UTC. Time now 2017-Sep-19 20:23 UTC.
Position N 39°05' W 076°23'.

; draft 10 m.

Type: Tug. MMSI: 366948330.

Date/timePositionNaut miles runAvg speedWind from/ knotsBaromVisibWave heightAir tempDewpointWater temp
2017-Sep-19 20:00N 39°05' W 076°23'4 7.1
2017-Sep-19 19:30N 39°08' W 076°24'3 5.8
2017-Sep-19 18:59N 39°11' W 076°24'3 6.7
2017-Sep-19 18:30N 39°13' W 076°21'3 6.8
2017-Sep-19 18:00N 39°15' W 076°17'4 7.4
2017-Sep-19 17:30N 39°17' W 076°13'4 8.5
2017-Sep-19 17:00N 39°21' W 076°10'4 8.7
2017-Sep-19 16:30N 39°23' W 076°05'4 7.2
2017-Sep-19 16:00N 39°26' W 076°02'3 6.7
2017-Sep-19 15:30N 39°29' W 076°04'3 6.1
2017-Sep-19 15:00N 39°32' W 076°05'3 5.0
2017-Sep-19 14:31N 39°34' W 076°06'0 0.7
2017-Sep-19 14:00N 39°34' W 076°06'0 0.0
2017-Sep-19 13:30N 39°34' W 076°06'0 0.2
2017-Sep-19 13:00N 39°34' W 076°06'0 0.0
2017-Sep-19 12:30N 39°34' W 076°06'0 0.0
2017-Sep-19 12:00N 39°34' W 076°06'0 0.0
2017-Sep-19 11:30N 39°34' W 076°06'0 0.0
2017-Sep-19 11:00N 39°34' W 076°06'0 0.0
2017-Sep-19 10:30N 39°34' W 076°06'0 0.0
2017-Sep-19 10:00N 39°34' W 076°06'0 0.0
2017-Sep-19 09:30N 39°34' W 076°06'0 0.0
2017-Sep-19 09:00N 39°34' W 076°06'0 0.0
2017-Sep-19 08:30N 39°34' W 076°06'0 0.0
2017-Sep-19 08:00N 39°34' W 076°06'0 0.0
2017-Sep-19 07:30N 39°34' W 076°06'0 0.0
2017-Sep-19 07:00N 39°34' W 076°06'0 0.0
2017-Sep-19 06:30N 39°34' W 076°06'0 0.0
2017-Sep-19 06:00N 39°34' W 076°06'0 0.0
2017-Sep-19 05:30N 39°34' W 076°06'0 0.0
2017-Sep-19 05:00N 39°34' W 076°06'0 0.0
2017-Sep-19 04:30N 39°34' W 076°06'0 0.0
2017-Sep-19 04:00N 39°34' W 076°06'0 0.0
2017-Sep-19 03:30N 39°34' W 076°06'0 0.0
2017-Sep-19 03:00N 39°34' W 076°06'0 0.0
2017-Sep-19 02:30N 39°34' W 076°06'0 0.0
2017-Sep-19 02:00N 39°34' W 076°06'0 0.0
2017-Sep-19 01:30N 39°34' W 076°06'0 0.0
2017-Sep-19 00:59N 39°34' W 076°06'0 0.0
2017-Sep-19 00:30N 39°34' W 076°06'0 0.0
2017-Sep-19 00:00N 39°34' W 076°06'0 0.0
2017-Sep-18 23:30N 39°34' W 076°06'0 0.0
2017-Sep-18 23:00N 39°34' W 076°06'0 0.0
2017-Sep-18 22:30N 39°34' W 076°06'0 0.4
2017-Sep-18 22:00N 39°34' W 076°06'0 0.0
2017-Sep-18 21:30N 39°34' W 076°06'0 0.0
2017-Sep-18 21:00N 39°34' W 076°06'0 0.0
2017-Sep-18 20:30N 39°34' W 076°06'0 0.0
2017-Sep-18 20:00N 39°34' W 076°06'0 0.0
2017-Sep-18 19:30N 39°34' W 076°06'0 0.0
2017-Sep-18 19:00N 39°34' W 076°06'0 0.0
2017-Sep-18 18:30N 39°34' W 076°06'0 0.0
2017-Sep-18 18:00N 39°34' W 076°06'0 0.0
2017-Sep-18 17:30N 39°34' W 076°06'0 0.0
2017-Sep-18 17:00N 39°34' W 076°06'0 0.0
2017-Sep-18 16:30N 39°34' W 076°06'0 0.0
2017-Sep-18 16:00N 39°34' W 076°06'0 0.5
2017-Sep-18 15:30N 39°34' W 076°06'0 0.0
2017-Sep-18 14:47N 39°34' W 076°06'0 0.0
2017-Sep-18 14:28N 39°34' W 076°06'0 0.0
2017-Sep-18 13:59N 39°34' W 076°06'0 0.0
2017-Sep-18 13:30N 39°34' W 076°06'0 0.0
2017-Sep-18 13:00N 39°34' W 076°06'2 4.0
2017-Sep-18 12:30N 39°33' W 076°05'3 5.9
2017-Sep-18 12:00N 39°30' W 076°05'4 7.9
2017-Sep-18 11:30N 39°27' W 076°02'4 8.5
2017-Sep-18 11:00N 39°23' W 076°05'5 9.8
2017-Sep-18 10:30N 39°21' W 076°11'4 7.4
2017-Sep-18 10:00N 39°17' W 076°13'5 9.0
2017-Sep-18 09:28N 39°13' W 076°15'5 9.6
2017-Sep-18 09:00N 39°09' W 076°19'5 9.3
2017-Sep-18 08:30N 39°05' W 076°21'5 9.6
2017-Sep-18 08:00N 39°00' W 076°23'5 9.7
2017-Sep-18 07:30N 38°56' W 076°25'5 9.6
2017-Sep-18 06:59N 38°51' W 076°26'6 9.4
2017-Sep-18 06:24N 38°45' W 076°28'6 9.3
2017-Sep-18 05:44N 38°39' W 076°28'2 9.3
2017-Sep-18 05:28N 38°37' W 076°28'6 9.4
2017-Sep-18 04:48N 38°31' W 076°26'3 9.4
2017-Sep-18 04:29N 38°28' W 076°25'3 6.1
2017-Sep-18 04:00N 38°26' W 076°22'93 7.5
2017-Sep-17 15:36N 36°52' W 076°20'1 9.1
2017-Sep-17 15:30N 36°52' W 076°19'3 6.2
2017-Sep-17 15:00N 36°50' W 076°16'1 1.7
2017-Sep-17 14:30N 36°50' W 076°15'2 3.6
2017-Sep-17 14:00N 36°50' W 076°17'3 5.9
2017-Sep-17 13:30N 36°52' W 076°20'61 6.4
2017-Sep-17 04:01N 37°53' W 076°10'0 6.4
2017-Sep-17 04:00N 37°53' W 076°10'59 6.9
2017-Sep-16 19:29N 38°51' W 076°25'9 6.7
2017-Sep-16 18:06N 38°60' W 076°23'1 6.5
2017-Sep-16 17:59N 39°00' W 076°23'3 6.6
2017-Sep-16 17:30N 39°03' W 076°21'3 6.6
2017-Sep-16 16:59N 39°07' W 076°20'3 7.0
2017-Sep-16 16:31N 39°10' W 076°18'4 7.5
2017-Sep-16 16:00N 39°13' W 076°15'4 7.7
2017-Sep-16 15:30N 39°17' W 076°14'5 8.1
2017-Sep-16 14:54N 39°21' W 076°11'5 8.4
2017-Sep-16 14:20N 39°23' W 076°05'3 7.7
2017-Sep-16 14:00N 39°25' W 076°03'3 6.8
2017-Sep-16 13:30N 39°28' W 076°03'3 6.3
2017-Sep-16 13:00N 39°31' W 076°05'2 4.1
2017-Sep-16 12:30N 39°33' W 076°04'2 4.3
2017-Sep-16 12:00N 39°34' W 076°06'0 0.0
2017-Sep-16 11:30N 39°34' W 076°06'0 0.0
2017-Sep-16 11:00N 39°34' W 076°06'2 3.4
2017-Sep-16 10:30N 39°33' W 076°05'0 0.9
2017-Sep-16 10:00N 39°33' W 076°05'0 0.5
2017-Sep-16 09:30N 39°32' W 076°05'3 5.2
2017-Sep-16 09:00N 39°30' W 076°05'3 6.4
2017-Sep-16 08:30N 39°27' W 076°03'4 7.3
2017-Sep-16 08:00N 39°24' W 076°04'4 8.8
2017-Sep-16 07:30N 39°22' W 076°09'4 8.8
2017-Sep-16 07:00N 39°18' W 076°13'4 8.6
2017-Sep-16 06:30N 39°14' W 076°14'4 8.3
2017-Sep-16 06:00N 39°11' W 076°17'4 8.3
2017-Sep-16 05:30N 39°07' W 076°20'4 8.3
2017-Sep-16 05:00N 39°03' W 076°21'4 8.5
2017-Sep-16 04:30N 38°59' W 076°23'4 8.2
2017-Sep-16 04:00N 38°55' W 076°24'4 8.1
2017-Sep-16 03:30N 38°51' W 076°26'119 7.0
2017-Sep-15 10:32N 36°53' W 076°20'0 8.8
2017-Sep-15 10:30N 36°52' W 076°20'3 6.7
2017-Sep-15 10:00N 36°50' W 076°18'3 5.5
2017-Sep-15 09:30N 36°47' W 076°18'1 2.8
2017-Sep-15 09:00N 36°46' W 076°18'1 2.4
2017-Sep-15 08:30N 36°44' W 076°18'0 0.8
2017-Sep-15 08:00N 36°45' W 076°18'2 3.6
2017-Sep-15 07:30N 36°47' W 076°18'1 2.2
2017-Sep-15 07:00N 36°48' W 076°18'1 3.0
2017-Sep-15 06:30N 36°49' W 076°17'0 0.0
2017-Sep-15 06:00N 36°49' W 076°17'0 0.0
2017-Sep-15 05:30N 36°49' W 076°17'0 0.0
2017-Sep-15 05:00N 36°49' W 076°17'1 2.4
2017-Sep-15 04:30N 36°50' W 076°17'0 0.0
2017-Sep-15 04:00N 36°50' W 076°17'0 0.0
2017-Sep-15 03:30N 36°50' W 076°17'1 2.2
2017-Sep-15 03:00N 36°50' W 076°16'1 2.2
2017-Sep-15 02:30N 36°50' W 076°15'1 2.6
2017-Sep-15 02:00N 36°50' W 076°16'3 5.3
2017-Sep-15 01:30N 36°52' W 076°19'4 6.1
2017-Sep-15 00:52N 36°56' W 076°20'66 6.5
2017-Sep-14 14:45N 38°01' W 076°15'10 7.1
2017-Sep-14 13:17N 38°11' W 076°17'3 6.9
2017-Sep-14 12:50N 38°14' W 076°18'2 6.8
2017-Sep-14 12:30N 38°16' W 076°19'31 7.2
2017-Sep-14 08:12N 38°47' W 076°27'1 7.3
2017-Sep-14 07:59N 38°48' W 076°27'4 7.1
2017-Sep-14 07:29N 38°52' W 076°26'3 7.1
2017-Sep-14 07:00N 38°55' W 076°25'3 6.8
2017-Sep-14 06:30N 38°58' W 076°24'3 6.4
2017-Sep-14 06:01N 39°01' W 076°22'3 6.3
2017-Sep-14 05:31N 39°04' W 076°21'3 6.2
2017-Sep-14 05:01N 39°07' W 076°20'3 6.1
2017-Sep-14 04:31N 39°10' W 076°18'3 5.8
2017-Sep-14 04:00N 39°12' W 076°16'3 5.8
2017-Sep-14 03:31N 39°15' W 076°14'3 6.3
2017-Sep-14 03:00N 39°18' W 076°13'3 6.6
2017-Sep-14 02:30N 39°21' W 076°11'4 7.2
2017-Sep-14 01:57N 39°23' W 076°07'3 7.2
2017-Sep-14 01:30N 39°24' W 076°03'3 6.4
2017-Sep-14 01:00N 39°28' W 076°03'3 6.2
2017-Sep-14 00:30N 39°30' W 076°05'3 6.0
2017-Sep-14 00:00N 39°33' W 076°05'2 3.2
2017-Sep-13 23:30N 39°34' W 076°06'0 0.3
2017-Sep-13 23:00N 39°34' W 076°06'0 0.0
2017-Sep-13 22:26N 39°34' W 076°06'0 0.0
2017-Sep-13 21:59N 39°34' W 076°06'0 0.0
2017-Sep-13 21:29N 39°34' W 076°06'0 0.0
2017-Sep-13 21:00N 39°34' W 076°06'0 0.0
2017-Sep-13 20:30N 39°34' W 076°06'0 0.0
2017-Sep-13 20:00N 39°34' W 076°06'0 0.0
2017-Sep-13 19:30N 39°34' W 076°06'0 0.0
2017-Sep-13 19:00N 39°34' W 076°06'0 0.0
2017-Sep-13 18:30N 39°34' W 076°06'1 2.9
2017-Sep-13 18:00N 39°33' W 076°05'4 8.7
2017-Sep-13 17:30N 39°29' W 076°05'4 8.2
2017-Sep-13 17:00N 39°25' W 076°03'5 9.8
2017-Sep-13 16:30N 39°22' W 076°08'510.1
2017-Sep-13 16:00N 39°19' W 076°13'5 9.4
2017-Sep-13 15:30N 39°15' W 076°17'5 9.4
2017-Sep-13 15:00N 39°13' W 076°22'5 8.5
2017-Sep-13 14:26N 39°11' W 076°28'4 9.0
2017-Sep-13 14:00N 39°13' W 076°32'3 6.7
2017-Sep-13 13:30N 39°15' W 076°36'1 1.1
2017-Sep-13 13:00N 39°15' W 076°36'0 0.4
2017-Sep-13 12:30N 39°15' W 076°36'2 4.7
2017-Sep-13 12:00N 39°14' W 076°33'4 7.6
2017-Sep-13 11:30N 39°12' W 076°29'4 7.5
2017-Sep-13 11:00N 39°10' W 076°25'3 6.9
2017-Sep-13 10:30N 39°07' W 076°24'2 5.0
2017-Sep-13 10:00N 39°05' W 076°21'3 6.5
2017-Sep-13 09:30N 39°08' W 076°20'4 7.5
2017-Sep-13 09:01N 39°11' W 076°17'4 7.1
2017-Sep-13 08:30N 39°14' W 076°15'3 6.9
2017-Sep-13 08:00N 39°17' W 076°13'3 6.5
2017-Sep-13 07:30N 39°20' W 076°11'3 6.1
2017-Sep-13 07:00N 39°22' W 076°08'3 5.8
2017-Sep-13 06:30N 39°23' W 076°05'3 5.4
2017-Sep-13 06:01N 39°25' W 076°02'3 5.1
2017-Sep-13 05:30N 39°28' W 076°03'3 5.1
2017-Sep-13 05:01N 39°29' W 076°05'2 4.9
2017-Sep-13 04:31N 39°32' W 076°05'3 5.1
2017-Sep-13 04:00N 39°34' W 076°06'0 0.6
2017-Sep-13 03:31N 39°34' W 076°06'0 0.2
2017-Sep-13 03:00N 39°34' W 076°06'0 0.1
2017-Sep-13 02:30N 39°34' W 076°06'0 0.6
2017-Sep-13 02:01N 39°34' W 076°06'2 4.7
2017-Sep-13 01:30N 39°32' W 076°05'3 6.7
2017-Sep-13 01:00N 39°29' W 076°04'4 7.2
2017-Sep-13 00:30N 39°25' W 076°03'4 7.3
2017-Sep-13 00:00N 39°23' W 076°06'4 7.5
2017-Sep-12 23:30N 39°21' W 076°10'4 7.1
2017-Sep-12 22:59N 39°18' W 076°13'3 6.2
2017-Sep-12 22:25N 39°16' W 076°17'3 7.6
2017-Sep-12 22:00N 39°14' W 076°20'4 7.7
2017-Sep-12 21:30N 39°12' W 076°24'3 6.8
2017-Sep-12 21:00N 39°11' W 076°28'4 7.5
2017-Sep-12 20:30N 39°14' W 076°32'3 6.0
2017-Sep-12 20:01N 39°15' W 076°35'1 1.8
2017-Sep-12 19:30N 39°15' W 076°36'0 0.1
2017-Sep-12 19:01N 39°15' W 076°36'0 0.1
2017-Sep-12 18:30N 39°15' W 076°36'0 0.0
2017-Sep-12 18:00N 39°15' W 076°36'0 0.0
2017-Sep-12 17:30N 39°15' W 076°36'0 0.0
2017-Sep-12 17:00N 39°15' W 076°36'0 0.1
2017-Sep-12 16:30N 39°15' W 076°36'0 0.0
2017-Sep-12 16:00N 39°15' W 076°36'0 0.0
2017-Sep-12 15:28N 39°15' W 076°36'0 0.0
2017-Sep-12 14:58N 39°15' W 076°36'0 0.0
2017-Sep-12 14:30N 39°15' W 076°36'0 0.0
2017-Sep-12 14:00N 39°15' W 076°36'0 0.0
2017-Sep-12 13:30N 39°15' W 076°36'0 0.0
2017-Sep-12 13:00N 39°15' W 076°36'0 0.0
2017-Sep-12 12:30N 39°15' W 076°36'0 0.0
2017-Sep-12 12:00N 39°15' W 076°36'0 0.0
2017-Sep-12 11:30N 39°15' W 076°36'0 0.0
2017-Sep-12 11:00N 39°15' W 076°36'0 0.0
2017-Sep-12 10:16N 39°15' W 076°36'0 0.0
2017-Sep-12 10:00N 39°15' W 076°36'0 0.0
2017-Sep-12 09:30N 39°15' W 076°36'0 0.0
2017-Sep-12 09:00N 39°15' W 076°36'0 0.0
2017-Sep-12 08:30N 39°15' W 076°36'0 0.1
2017-Sep-12 08:00N 39°15' W 076°36'1 1.9
2017-Sep-12 07:31N 39°15' W 076°35'3 6.1
2017-Sep-12 07:00N 39°13' W 076°32'3 6.5
2017-Sep-12 06:30N 39°12' W 076°29'3 5.7
2017-Sep-12 06:00N 39°11' W 076°25'3 5.6
2017-Sep-12 05:30N 39°13' W 076°22'3 5.5
2017-Sep-12 04:59N 39°14' W 076°19'3 5.3
2017-Sep-12 04:30N 39°16' W 076°16'3 5.2
2017-Sep-12 04:00N 39°17' W 076°14'3 5.1
2017-Sep-12 03:30N 39°20' W 076°12'3 5.2
2017-Sep-12 03:00N 39°21' W 076°10'3 5.2
2017-Sep-12 02:30N 39°23' W 076°07'3 5.4
2017-Sep-12 02:00N 39°24' W 076°04'3 5.2
2017-Sep-12 01:30N 39°26' W 076°02'3 5.6
2017-Sep-12 01:00N 39°29' W 076°04'3 5.4
2017-Sep-12 00:30N 39°31' W 076°05'3 5.4
2017-Sep-12 00:00N 39°34' W 076°06'1 1.2
2017-Sep-11 23:30N 39°34' W 076°06'0 0.2
2017-Sep-11 23:00N 39°34' W 076°06'0 0.0
2017-Sep-11 22:30N 39°34' W 076°06'0 0.0
2017-Sep-11 22:00N 39°34' W 076°06'0 0.0
2017-Sep-11 21:30N 39°34' W 076°06'0 0.0
2017-Sep-11 21:00N 39°34' W 076°06'0 0.0
2017-Sep-11 20:30N 39°34' W 076°06'0 0.0
2017-Sep-11 20:00N 39°34' W 076°06'0 0.0
2017-Sep-11 19:30N 39°34' W 076°06'0 0.0
2017-Sep-11 19:00N 39°34' W 076°06'0 0.0
2017-Sep-11 18:30N 39°34' W 076°06'0 0.0
2017-Sep-11 17:59N 39°34' W 076°06'0 0.0
2017-Sep-11 17:30N 39°34' W 076°06'0 0.0
2017-Sep-11 16:52N 39°34' W 076°06'0 0.0
2017-Sep-11 16:30N 39°34' W 076°06'0 0.0
2017-Sep-11 15:55N 39°34' W 076°06'0 0.0
2017-Sep-11 15:28N 39°34' W 076°06'0 0.0
2017-Sep-11 14:59N 39°34' W 076°06'0 0.0
2017-Sep-11 14:29N 39°34' W 076°06'0 0.0
2017-Sep-11 14:00N 39°34' W 076°06'0 0.0
2017-Sep-11 13:30N 39°34' W 076°06'0 0.0
2017-Sep-11 13:00N 39°34' W 076°06'0 0.0
2017-Sep-11 12:30N 39°34' W 076°06'0 0.0
2017-Sep-11 12:00N 39°34' W 076°06'0 0.0
2017-Sep-11 11:30N 39°34' W 076°06'0 0.0
2017-Sep-11 10:59N 39°34' W 076°06'0 0.0
2017-Sep-11 10:30N 39°34' W 076°06'0 0.5
2017-Sep-11 10:00N 39°34' W 076°06'0 0.0
2017-Sep-11 09:30N 39°34' W 076°06'0 0.0
2017-Sep-11 09:00N 39°34' W 076°06'0 0.0
2017-Sep-11 08:29N 39°34' W 076°06'0 0.0
2017-Sep-11 07:58N 39°34' W 076°06'0 0.0
2017-Sep-11 07:28N 39°34' W 076°06'0 0.0
2017-Sep-11 06:57N 39°34' W 076°06'0 0.0
2017-Sep-11 06:30N 39°34' W 076°06'0 0.0
2017-Sep-11 05:59N 39°34' W 076°06'0 0.0
2017-Sep-11 05:30N 39°34' W 076°06'0 0.0
2017-Sep-11 04:59N 39°34' W 076°06'0 0.0
2017-Sep-11 04:30N 39°34' W 076°06'0 0.0
2017-Sep-11 04:00N 39°34' W 076°06'0 0.0
2017-Sep-11 03:30N 39°34' W 076°06'0 0.0
2017-Sep-11 03:00N 39°34' W 076°06'0 0.0
2017-Sep-11 02:30N 39°34' W 076°06'0 0.0
2017-Sep-11 02:00N 39°34' W 076°06'0 0.0
2017-Sep-11 01:30N 39°34' W 076°06'0 0.0
2017-Sep-11 01:00N 39°34' W 076°06'0 0.0
2017-Sep-11 00:30N 39°34' W 076°06'0 0.0
2017-Sep-10 22:41N 39°34' W 076°06'0 0.0
2017-Sep-10 22:30N 39°34' W 076°06'0 0.0
2017-Sep-10 19:02N 39°34' W 076°06'0 0.0
2017-Sep-10 18:57N 39°34' W 076°06'0 0.0
2017-Sep-10 18:30N 39°34' W 076°06'0 0.0
2017-Sep-10 17:59N 39°34' W 076°06'0 0.0
2017-Sep-10 17:25N 39°34' W 076°06'0 0.0
2017-Sep-10 16:52N 39°34' W 076°06'0 0.0
2017-Sep-10 16:30N 39°34' W 076°06'0 0.0
2017-Sep-10 15:48N 39°34' W 076°06'0 0.0
2017-Sep-10 15:27N 39°34' W 076°06'0 0.0
2017-Sep-10 14:59N 39°34' W 076°06'0 0.0
2017-Sep-10 14:00N 39°34' W 076°06'0 0.0
2017-Sep-10 13:29N 39°34' W 076°06'0 0.0
2017-Sep-10 13:00N 39°34' W 076°06'0 0.0
2017-Sep-10 12:30N 39°34' W 076°06'0 0.0
2017-Sep-10 12:00N 39°34' W 076°06'0 0.0
2017-Sep-10 11:30N 39°34' W 076°06'0 0.0
2017-Sep-10 11:00N 39°34' W 076°06'0 0.0
2017-Sep-10 10:30N 39°34' W 076°06'0 0.0
2017-Sep-10 10:00N 39°34' W 076°06'0 0.0
2017-Sep-10 09:30N 39°34' W 076°06'0 0.0
2017-Sep-10 09:00N 39°34' W 076°06'0 0.0
2017-Sep-10 08:29N 39°34' W 076°06'0 0.0
2017-Sep-10 07:57N 39°34' W 076°06'0 0.0
2017-Sep-10 07:27N 39°34' W 076°06'0 0.0
2017-Sep-10 06:58N 39°34' W 076°06'0 0.0
2017-Sep-10 06:30N 39°34' W 076°06'0 0.0
2017-Sep-10 05:57N 39°34' W 076°06'0 0.0
2017-Sep-10 05:30N 39°34' W 076°06'0 0.0
2017-Sep-10 02:27N 39°34' W 076°06'0 0.0
2017-Sep-10 02:00N 39°34' W 076°06'0 0.0
2017-Sep-10 01:30N 39°34' W 076°06'0 0.0
2017-Sep-10 01:00N 39°34' W 076°06'0 0.0
2017-Sep-10 00:07N 39°34' W 076°06'0 0.0
2017-Sep-09 23:59N 39°34' W 076°06'0 0.0
2017-Sep-09 23:30N 39°34' W 076°06'0 0.0
2017-Sep-09 22:57N 39°34' W 076°06'0 0.0
2017-Sep-09 22:29N 39°34' W 076°06'0 0.0
2017-Sep-09 21:54N 39°34' W 076°06'0 0.0
2017-Sep-09 21:26N 39°34' W 076°06'  
Track history (hours):
 
Tides and Currents Weather Stations Pressure Air Temp Water Temp Dewpoint Dewpoint Depression Visibility Wind Speed Wind Dir Waves Ship Positions

Night Hawk

Owner: Salisbury Towing Corporation, Havre de Grace, MD. More information available from US FCC via Universal Licensing System and Coast Guard Vessel Documentation Center.

Last reported at 2017-Sep-19 20:00 UTC. Time now 2017-Sep-19 20:23 UTC.
Position N 39°05' W 076°23'.

; draft 10 m.

Type: Tug. MMSI: 366948330.

Date/timePositionNaut miles runAvg speedWind from/ knotsBaromVisibWave heightAir tempDewpointWater temp
2017-Sep-19 20:00N 39°05' W 076°23'4 7.1
2017-Sep-19 19:30N 39°08' W 076°24'3 5.8
2017-Sep-19 18:59N 39°11' W 076°24'3 6.7
2017-Sep-19 18:30N 39°13' W 076°21'3 6.8
2017-Sep-19 18:00N 39°15' W 076°17'4 7.4
2017-Sep-19 17:30N 39°17' W 076°13'4 8.5
2017-Sep-19 17:00N 39°21' W 076°10'4 8.7
2017-Sep-19 16:30N 39°23' W 076°05'4 7.2
2017-Sep-19 16:00N 39°26' W 076°02'3 6.7
2017-Sep-19 15:30N 39°29' W 076°04'3 6.1
2017-Sep-19 15:00N 39°32' W 076°05'3 5.0
2017-Sep-19 14:31N 39°34' W 076°06'0 0.7
2017-Sep-19 14:00N 39°34' W 076°06'0 0.0
2017-Sep-19 13:30N 39°34' W 076°06'0 0.2
2017-Sep-19 13:00N 39°34' W 076°06'0 0.0
2017-Sep-19 12:30N 39°34' W 076°06'0 0.0
2017-Sep-19 12:00N 39°34' W 076°06'0 0.0
2017-Sep-19 11:30N 39°34' W 076°06'0 0.0
2017-Sep-19 11:00N 39°34' W 076°06'0 0.0
2017-Sep-19 10:30N 39°34' W 076°06'0 0.0
2017-Sep-19 10:00N 39°34' W 076°06'0 0.0
2017-Sep-19 09:30N 39°34' W 076°06'0 0.0
2017-Sep-19 09:00N 39°34' W 076°06'0 0.0
2017-Sep-19 08:30N 39°34' W 076°06'0 0.0
2017-Sep-19 08:00N 39°34' W 076°06'0 0.0
2017-Sep-19 07:30N 39°34' W 076°06'0 0.0
2017-Sep-19 07:00N 39°34' W 076°06'0 0.0
2017-Sep-19 06:30N 39°34' W 076°06'0 0.0
2017-Sep-19 06:00N 39°34' W 076°06'0 0.0
2017-Sep-19 05:30N 39°34' W 076°06'0 0.0
2017-Sep-19 05:00N 39°34' W 076°06'0 0.0
2017-Sep-19 04:30N 39°34' W 076°06'0 0.0
2017-Sep-19 04:00N 39°34' W 076°06'0 0.0
2017-Sep-19 03:30N 39°34' W 076°06'0 0.0
2017-Sep-19 03:00N 39°34' W 076°06'0 0.0
2017-Sep-19 02:30N 39°34' W 076°06'0 0.0
2017-Sep-19 02:00N 39°34' W 076°06'0 0.0
2017-Sep-19 01:30N 39°34' W 076°06'0 0.0
2017-Sep-19 00:59N 39°34' W 076°06'0 0.0
2017-Sep-19 00:30N 39°34' W 076°06'0 0.0
2017-Sep-19 00:00N 39°34' W 076°06'0 0.0
2017-Sep-18 23:30N 39°34' W 076°06'0 0.0
2017-Sep-18 23:00N 39°34' W 076°06'0 0.0
2017-Sep-18 22:30N 39°34' W 076°06'0 0.4
2017-Sep-18 22:00N 39°34' W 076°06'0 0.0
2017-Sep-18 21:30N 39°34' W 076°06'0 0.0
2017-Sep-18 21:00N 39°34' W 076°06'0 0.0
2017-Sep-18 20:30N 39°34' W 076°06'0 0.0
2017-Sep-18 20:00N 39°34' W 076°06'0 0.0
2017-Sep-18 19:30N 39°34' W 076°06'0 0.0
2017-Sep-18 19:00N 39°34' W 076°06'0 0.0
2017-Sep-18 18:30N 39°34' W 076°06'0 0.0
2017-Sep-18 18:00N 39°34' W 076°06'0 0.0
2017-Sep-18 17:30N 39°34' W 076°06'0 0.0
2017-Sep-18 17:00N 39°34' W 076°06'0 0.0
2017-Sep-18 16:30N 39°34' W 076°06'0 0.0
2017-Sep-18 16:00N 39°34' W 076°06'0 0.5
2017-Sep-18 15:30N 39°34' W 076°06'0 0.0
2017-Sep-18 14:47N 39°34' W 076°06'0 0.0
2017-Sep-18 14:28N 39°34' W 076°06'0 0.0
2017-Sep-18 13:59N 39°34' W 076°06'0 0.0
2017-Sep-18 13:30N 39°34' W 076°06'0 0.0
2017-Sep-18 13:00N 39°34' W 076°06'2 4.0
2017-Sep-18 12:30N 39°33' W 076°05'3 5.9
2017-Sep-18 12:00N 39°30' W 076°05'4 7.9
2017-Sep-18 11:30N 39°27' W 076°02'4 8.5
2017-Sep-18 11:00N 39°23' W 076°05'5 9.8
2017-Sep-18 10:30N 39°21' W 076°11'4 7.4
2017-Sep-18 10:00N 39°17' W 076°13'5 9.0
2017-Sep-18 09:28N 39°13' W 076°15'5 9.6
2017-Sep-18 09:00N 39°09' W 076°19'5 9.3
2017-Sep-18 08:30N 39°05' W 076°21'5 9.6
2017-Sep-18 08:00N 39°00' W 076°23'5 9.7
2017-Sep-18 07:30N 38°56' W 076°25'5 9.6
2017-Sep-18 06:59N 38°51' W 076°26'6 9.4
2017-Sep-18 06:24N 38°45' W 076°28'6 9.3
2017-Sep-18 05:44N 38°39' W 076°28'2 9.3
2017-Sep-18 05:28N 38°37' W 076°28'6 9.4
2017-Sep-18 04:48N 38°31' W 076°26'3 9.4
2017-Sep-18 04:29N 38°28' W 076°25'3 6.1
2017-Sep-18 04:00N 38°26' W 076°22'93 7.5
2017-Sep-17 15:36N 36°52' W 076°20'1 9.1
2017-Sep-17 15:30N 36°52' W 076°19'3 6.2
2017-Sep-17 15:00N 36°50' W 076°16'1 1.7
2017-Sep-17 14:30N 36°50' W 076°15'2 3.6
2017-Sep-17 14:00N 36°50' W 076°17'3 5.9
2017-Sep-17 13:30N 36°52' W 076°20'61 6.4
2017-Sep-17 04:01N 37°53' W 076°10'0 6.4
2017-Sep-17 04:00N 37°53' W 076°10'59 6.9
2017-Sep-16 19:29N 38°51' W 076°25'9 6.7
2017-Sep-16 18:06N 38°60' W 076°23'1 6.5
2017-Sep-16 17:59N 39°00' W 076°23'3 6.6
2017-Sep-16 17:30N 39°03' W 076°21'3 6.6
2017-Sep-16 16:59N 39°07' W 076°20'3 7.0
2017-Sep-16 16:31N 39°10' W 076°18'4 7.5
2017-Sep-16 16:00N 39°13' W 076°15'4 7.7
2017-Sep-16 15:30N 39°17' W 076°14'5 8.1
2017-Sep-16 14:54N 39°21' W 076°11'5 8.4
2017-Sep-16 14:20N 39°23' W 076°05'3 7.7
2017-Sep-16 14:00N 39°25' W 076°03'3 6.8
2017-Sep-16 13:30N 39°28' W 076°03'3 6.3
2017-Sep-16 13:00N 39°31' W 076°05'2 4.1
2017-Sep-16 12:30N 39°33' W 076°04'2 4.3
2017-Sep-16 12:00N 39°34' W 076°06'0 0.0
2017-Sep-16 11:30N 39°34' W 076°06'0 0.0
2017-Sep-16 11:00N 39°34' W 076°06'2 3.4
2017-Sep-16 10:30N 39°33' W 076°05'0 0.9
2017-Sep-16 10:00N 39°33' W 076°05'0 0.5
2017-Sep-16 09:30N 39°32' W 076°05'3 5.2
2017-Sep-16 09:00N 39°30' W 076°05'3 6.4
2017-Sep-16 08:30N 39°27' W 076°03'4 7.3
2017-Sep-16 08:00N 39°24' W 076°04'4 8.8
2017-Sep-16 07:30N 39°22' W 076°09'4 8.8
2017-Sep-16 07:00N 39°18' W 076°13'4 8.6
2017-Sep-16 06:30N 39°14' W 076°14'4 8.3
2017-Sep-16 06:00N 39°11' W 076°17'4 8.3
2017-Sep-16 05:30N 39°07' W 076°20'4 8.3
2017-Sep-16 05:00N 39°03' W 076°21'4 8.5
2017-Sep-16 04:30N 38°59' W 076°23'4 8.2
2017-Sep-16 04:00N 38°55' W 076°24'4 8.1
2017-Sep-16 03:30N 38°51' W 076°26'119 7.0
2017-Sep-15 10:32N 36°53' W 076°20'0 8.8
2017-Sep-15 10:30N 36°52' W 076°20'3 6.7
2017-Sep-15 10:00N 36°50' W 076°18'3 5.5
2017-Sep-15 09:30N 36°47' W 076°18'1 2.8
2017-Sep-15 09:00N 36°46' W 076°18'1 2.4
2017-Sep-15 08:30N 36°44' W 076°18'0 0.8
2017-Sep-15 08:00N 36°45' W 076°18'2 3.6
2017-Sep-15 07:30N 36°47' W 076°18'1 2.2
2017-Sep-15 07:00N 36°48' W 076°18'1 3.0
2017-Sep-15 06:30N 36°49' W 076°17'0 0.0
2017-Sep-15 06:00N 36°49' W 076°17'0 0.0
2017-Sep-15 05:30N 36°49' W 076°17'0 0.0
2017-Sep-15 05:00N 36°49' W 076°17'1 2.4
2017-Sep-15 04:30N 36°50' W 076°17'0 0.0
2017-Sep-15 04:00N 36°50' W 076°17'0 0.0
2017-Sep-15 03:30N 36°50' W 076°17'1 2.2
2017-Sep-15 03:00N 36°50' W 076°16'1 2.2
2017-Sep-15 02:30N 36°50' W 076°15'1 2.6
2017-Sep-15 02:00N 36°50' W 076°16'3 5.3
2017-Sep-15 01:30N 36°52' W 076°19'4 6.1
2017-Sep-15 00:52N 36°56' W 076°20'66 6.5
2017-Sep-14 14:45N 38°01' W 076°15'10 7.1
2017-Sep-14 13:17N 38°11' W 076°17'3 6.9
2017-Sep-14 12:50N 38°14' W 076°18'2 6.8
2017-Sep-14 12:30N 38°16' W 076°19'31 7.2
2017-Sep-14 08:12N 38°47' W 076°27'1 7.3
2017-Sep-14 07:59N 38°48' W 076°27'4 7.1
2017-Sep-14 07:29N 38°52' W 076°26'3 7.1
2017-Sep-14 07:00N 38°55' W 076°25'3 6.8
2017-Sep-14 06:30N 38°58' W 076°24'3 6.4
2017-Sep-14 06:01N 39°01' W 076°22'3 6.3
2017-Sep-14 05:31N 39°04' W 076°21'3 6.2
2017-Sep-14 05:01N 39°07' W 076°20'3 6.1
2017-Sep-14 04:31N 39°10' W 076°18'3 5.8
2017-Sep-14 04:00N 39°12' W 076°16'3 5.8
2017-Sep-14 03:31N 39°15' W 076°14'3 6.3
2017-Sep-14 03:00N 39°18' W 076°13'3 6.6
2017-Sep-14 02:30N 39°21' W 076°11'4 7.2
2017-Sep-14 01:57N 39°23' W 076°07'3 7.2
2017-Sep-14 01:30N 39°24' W 076°03'3 6.4
2017-Sep-14 01:00N 39°28' W 076°03'3 6.2
2017-Sep-14 00:30N 39°30' W 076°05'3 6.0
2017-Sep-14 00:00N 39°33' W 076°05'2 3.2
2017-Sep-13 23:30N 39°34' W 076°06'0 0.3
2017-Sep-13 23:00N 39°34' W 076°06'0 0.0
2017-Sep-13 22:26N 39°34' W 076°06'0 0.0
2017-Sep-13 21:59N 39°34' W 076°06'0 0.0
2017-Sep-13 21:29N 39°34' W 076°06'0 0.0
2017-Sep-13 21:00N 39°34' W 076°06'0 0.0
2017-Sep-13 20:30N 39°34' W 076°06'0 0.0
2017-Sep-13 20:00N 39°34' W 076°06'0 0.0
2017-Sep-13 19:30N 39°34' W 076°06'0 0.0
2017-Sep-13 19:00N 39°34' W 076°06'0 0.0
2017-Sep-13 18:30N 39°34' W 076°06'1 2.9
2017-Sep-13 18:00N 39°33' W 076°05'4 8.7
2017-Sep-13 17:30N 39°29' W 076°05'4 8.2
2017-Sep-13 17:00N 39°25' W 076°03'5 9.8
2017-Sep-13 16:30N 39°22' W 076°08'510.1
2017-Sep-13 16:00N 39°19' W 076°13'5 9.4
2017-Sep-13 15:30N 39°15' W 076°17'5 9.4
2017-Sep-13 15:00N 39°13' W 076°22'5 8.5
2017-Sep-13 14:26N 39°11' W 076°28'4 9.0
2017-Sep-13 14:00N 39°13' W 076°32'3 6.7
2017-Sep-13 13:30N 39°15' W 076°36'1 1.1
2017-Sep-13 13:00N 39°15' W 076°36'0 0.4
2017-Sep-13 12:30N 39°15' W 076°36'2 4.7
2017-Sep-13 12:00N 39°14' W 076°33'4 7.6
2017-Sep-13 11:30N 39°12' W 076°29'4 7.5
2017-Sep-13 11:00N 39°10' W 076°25'3 6.9
2017-Sep-13 10:30N 39°07' W 076°24'2 5.0
2017-Sep-13 10:00N 39°05' W 076°21'3 6.5
2017-Sep-13 09:30N 39°08' W 076°20'4 7.5
2017-Sep-13 09:01N 39°11' W 076°17'4 7.1
2017-Sep-13 08:30N 39°14' W 076°15'3 6.9
2017-Sep-13 08:00N 39°17' W 076°13'3 6.5
2017-Sep-13 07:30N 39°20' W 076°11'3 6.1
2017-Sep-13 07:00N 39°22' W 076°08'3 5.8
2017-Sep-13 06:30N 39°23' W 076°05'3 5.4
2017-Sep-13 06:01N 39°25' W 076°02'3 5.1
2017-Sep-13 05:30N 39°28' W 076°03'3 5.1
2017-Sep-13 05:01N 39°29' W 076°05'2 4.9
2017-Sep-13 04:31N 39°32' W 076°05'3 5.1
2017-Sep-13 04:00N 39°34' W 076°06'0 0.6
2017-Sep-13 03:31N 39°34' W 076°06'0 0.2
2017-Sep-13 03:00N 39°34' W 076°06'0 0.1
2017-Sep-13 02:30N 39°34' W 076°06'0 0.6
2017-Sep-13 02:01N 39°34' W 076°06'2 4.7
2017-Sep-13 01:30N 39°32' W 076°05'3 6.7
2017-Sep-13 01:00N 39°29' W 076°04'4 7.2
2017-Sep-13 00:30N 39°25' W 076°03'4 7.3
2017-Sep-13 00:00N 39°23' W 076°06'4 7.5
2017-Sep-12 23:30N 39°21' W 076°10'4 7.1
2017-Sep-12 22:59N 39°18' W 076°13'3 6.2
2017-Sep-12 22:25N 39°16' W 076°17'3 7.6
2017-Sep-12 22:00N 39°14' W 076°20'4 7.7
2017-Sep-12 21:30N 39°12' W 076°24'3 6.8
2017-Sep-12 21:00N 39°11' W 076°28'4 7.5
2017-Sep-12 20:30N 39°14' W 076°32'3 6.0
2017-Sep-12 20:01N 39°15' W 076°35'1 1.8
2017-Sep-12 19:30N 39°15' W 076°36'0 0.1
2017-Sep-12 19:01N 39°15' W 076°36'0 0.1
2017-Sep-12 18:30N 39°15' W 076°36'0 0.0
2017-Sep-12 18:00N 39°15' W 076°36'0 0.0
2017-Sep-12 17:30N 39°15' W 076°36'0 0.0
2017-Sep-12 17:00N 39°15' W 076°36'0 0.1
2017-Sep-12 16:30N 39°15' W 076°36'0 0.0
2017-Sep-12 16:00N 39°15' W 076°36'0 0.0
2017-Sep-12 15:28N 39°15' W 076°36'0 0.0
2017-Sep-12 14:58N 39°15' W 076°36'0 0.0
2017-Sep-12 14:30N 39°15' W 076°36'0 0.0
2017-Sep-12 14:00N 39°15' W 076°36'0 0.0
2017-Sep-12 13:30N 39°15' W 076°36'0 0.0
2017-Sep-12 13:00N 39°15' W 076°36'0 0.0
2017-Sep-12 12:30N 39°15' W 076°36'0 0.0
2017-Sep-12 12:00N 39°15' W 076°36'0 0.0
2017-Sep-12 11:30N 39°15' W 076°36'0 0.0
2017-Sep-12 11:00N 39°15' W 076°36'0 0.0
2017-Sep-12 10:16N 39°15' W 076°36'0 0.0
2017-Sep-12 10:00N 39°15' W 076°36'0 0.0
2017-Sep-12 09:30N 39°15' W 076°36'0 0.0
2017-Sep-12 09:00N 39°15' W 076°36'0 0.0
2017-Sep-12 08:30N 39°15' W 076°36'0 0.1
2017-Sep-12 08:00N 39°15' W 076°36'1 1.9
2017-Sep-12 07:31N 39°15' W 076°35'3 6.1
2017-Sep-12 07:00N 39°13' W 076°32'3 6.5
2017-Sep-12 06:30N 39°12' W 076°29'3 5.7
2017-Sep-12 06:00N 39°11' W 076°25'3 5.6
2017-Sep-12 05:30N 39°13' W 076°22'3 5.5
2017-Sep-12 04:59N 39°14' W 076°19'3 5.3
2017-Sep-12 04:30N 39°16' W 076°16'3 5.2
2017-Sep-12 04:00N 39°17' W 076°14'3 5.1
2017-Sep-12 03:30N 39°20' W 076°12'3 5.2
2017-Sep-12 03:00N 39°21' W 076°10'3 5.2
2017-Sep-12 02:30N 39°23' W 076°07'3 5.4
2017-Sep-12 02:00N 39°24' W 076°04'3 5.2
2017-Sep-12 01:30N 39°26' W 076°02'3 5.6
2017-Sep-12 01:00N 39°29' W 076°04'3 5.4
2017-Sep-12 00:30N 39°31' W 076°05'3 5.4
2017-Sep-12 00:00N 39°34' W 076°06'1 1.2
2017-Sep-11 23:30N 39°34' W 076°06'0 0.2
2017-Sep-11 23:00N 39°34' W 076°06'0 0.0
2017-Sep-11 22:30N 39°34' W 076°06'0 0.0
2017-Sep-11 22:00N 39°34' W 076°06'0 0.0
2017-Sep-11 21:30N 39°34' W 076°06'0 0.0
2017-Sep-11 21:00N 39°34' W 076°06'0 0.0
2017-Sep-11 20:30N 39°34' W 076°06'0 0.0
2017-Sep-11 20:00N 39°34' W 076°06'0 0.0
2017-Sep-11 19:30N 39°34' W 076°06'0 0.0
2017-Sep-11 19:00N 39°34' W 076°06'0 0.0
2017-Sep-11 18:30N 39°34' W 076°06'0 0.0
2017-Sep-11 17:59N 39°34' W 076°06'0 0.0
2017-Sep-11 17:30N 39°34' W 076°06'0 0.0
2017-Sep-11 16:52N 39°34' W 076°06'0 0.0
2017-Sep-11 16:30N 39°34' W 076°06'0 0.0
2017-Sep-11 15:55N 39°34' W 076°06'0 0.0
2017-Sep-11 15:28N 39°34' W 076°06'0 0.0
2017-Sep-11 14:59N 39°34' W 076°06'0 0.0
2017-Sep-11 14:29N 39°34' W 076°06'0 0.0
2017-Sep-11 14:00N 39°34' W 076°06'0 0.0
2017-Sep-11 13:30N 39°34' W 076°06'0 0.0
2017-Sep-11 13:00N 39°34' W 076°06'0 0.0
2017-Sep-11 12:30N 39°34' W 076°06'0 0.0
2017-Sep-11 12:00N 39°34' W 076°06'0 0.0
2017-Sep-11 11:30N 39°34' W 076°06'0 0.0
2017-Sep-11 10:59N 39°34' W 076°06'0 0.0
2017-Sep-11 10:30N 39°34' W 076°06'0 0.5
2017-Sep-11 10:00N 39°34' W 076°06'0 0.0
2017-Sep-11 09:30N 39°34' W 076°06'0 0.0
2017-Sep-11 09:00N 39°34' W 076°06'0 0.0
2017-Sep-11 08:29N 39°34' W 076°06'0 0.0
2017-Sep-11 07:58N 39°34' W 076°06'0 0.0
2017-Sep-11 07:28N 39°34' W 076°06'0 0.0
2017-Sep-11 06:57N 39°34' W 076°06'0 0.0
2017-Sep-11 06:30N 39°34' W 076°06'0 0.0
2017-Sep-11 05:59N 39°34' W 076°06'0 0.0
2017-Sep-11 05:30N 39°34' W 076°06'0 0.0
2017-Sep-11 04:59N 39°34' W 076°06'0 0.0
2017-Sep-11 04:30N 39°34' W 076°06'0 0.0
2017-Sep-11 04:00N 39°34' W 076°06'0 0.0
2017-Sep-11 03:30N 39°34' W 076°06'0 0.0
2017-Sep-11 03:00N 39°34' W 076°06'0 0.0
2017-Sep-11 02:30N 39°34' W 076°06'0 0.0
2017-Sep-11 02:00N 39°34' W 076°06'0 0.0
2017-Sep-11 01:30N 39°34' W 076°06'0 0.0
2017-Sep-11 01:00N 39°34' W 076°06'0 0.0
2017-Sep-11 00:30N 39°34' W 076°06'0 0.0
2017-Sep-10 22:41N 39°34' W 076°06'0 0.0
2017-Sep-10 22:30N 39°34' W 076°06'0 0.0
2017-Sep-10 19:02N 39°34' W 076°06'0 0.0
2017-Sep-10 18:57N 39°34' W 076°06'0 0.0
2017-Sep-10 18:30N 39°34' W 076°06'0 0.0
2017-Sep-10 17:59N 39°34' W 076°06'0 0.0
2017-Sep-10 17:25N 39°34' W 076°06'0 0.0
2017-Sep-10 16:52N 39°34' W 076°06'0 0.0
2017-Sep-10 16:30N 39°34' W 076°06'0 0.0
2017-Sep-10 15:48N 39°34' W 076°06'0 0.0
2017-Sep-10 15:27N 39°34' W 076°06'0 0.0
2017-Sep-10 14:59N 39°34' W 076°06'0 0.0
2017-Sep-10 14:00N 39°34' W 076°06'0 0.0
2017-Sep-10 13:29N 39°34' W 076°06'0 0.0
2017-Sep-10 13:00N 39°34' W 076°06'0 0.0
2017-Sep-10 12:30N 39°34' W 076°06'0 0.0
2017-Sep-10 12:00N 39°34' W 076°06'0 0.0
2017-Sep-10 11:30N 39°34' W 076°06'0 0.0
2017-Sep-10 11:00N 39°34' W 076°06'0 0.0
2017-Sep-10 10:30N 39°34' W 076°06'0 0.0
2017-Sep-10 10:00N 39°34' W 076°06'0 0.0
2017-Sep-10 09:30N 39°34' W 076°06'0 0.0
2017-Sep-10 09:00N 39°34' W 076°06'0 0.0
2017-Sep-10 08:29N 39°34' W 076°06'0 0.0
2017-Sep-10 07:57N 39°34' W 076°06'0 0.0
2017-Sep-10 07:27N 39°34' W 076°06'0 0.0
2017-Sep-10 06:58N 39°34' W 076°06'0 0.0
2017-Sep-10 06:30N 39°34' W 076°06'0 0.0
2017-Sep-10 05:57N 39°34' W 076°06'0 0.0
2017-Sep-10 05:30N 39°34' W 076°06'0 0.0
2017-Sep-10 02:27N 39°34' W 076°06'0 0.0
2017-Sep-10 02:00N 39°34' W 076°06'0 0.0
2017-Sep-10 01:30N 39°34' W 076°06'0 0.0
2017-Sep-10 01:00N 39°34' W 076°06'0 0.0
2017-Sep-10 00:07N 39°34' W 076°06'0 0.0
2017-Sep-09 23:59N 39°34' W 076°06'0 0.0
2017-Sep-09 23:30N 39°34' W 076°06'0 0.0
2017-Sep-09 22:57N 39°34' W 076°06'0 0.0
2017-Sep-09 22:29N 39°34' W 076°06'0 0.0
2017-Sep-09 21:54N 39°34' W 076°06'0 0.0
2017-Sep-09 21:26N 39°34' W 076°06'  

Dump ship's entire track history